Time;durP1;ratioP1;P1;durP2;ratioP2;P2;SDS_P1;SDS_P2;PMS_P1;PMS_P2;Temp;Humidity;BMP_temperature;BMP_pressure;BME280_temperature;BME280_humidity;BME280_pressure;Samples;Min_cycle;Max_cycle;Signal;HPM_P1;HPM_P2
2023/02/16 00:00:01;;;;;;;11.97;9.37;;;17.60;62.50;;;;;;5046369;28;20217;-45
2023/02/16 00:02:40;;;;;;;10.27;8.57;;;17.60;62.50;;;;;;5040360;28;20236;-45
2023/02/16 00:05:26;;;;;;;10.60;7.97;;;17.50;62.60;;;;;;5048539;28;20233;-45
2023/02/16 00:07:56;;;;;;;11.67;9.30;;;17.60;62.50;;;;;;5050873;28;20198;-45
2023/02/16 00:10:31;;;;;;;11.57;9.13;;;17.50;62.40;;;;;;5033590;28;20358;-45
2023/02/16 00:16:35;;;;;;;11.93;9.20;;;17.50;62.50;;;;;;5047875;28;20370;-45
2023/02/16 00:19:37;;;;;;;10.07;8.43;;;17.50;62.30;;;;;;5066066;28;20733;-45
2023/02/16 00:22:07;;;;;;;10.13;8.87;;;17.50;62.30;;;;;;5048638;28;20213;-45
2023/02/16 00:24:36;;;;;;;11.13;8.93;;;17.50;62.30;;;;;;5069173;28;20225;-45
2023/02/16 00:27:18;;;;;;;10.03;8.77;;;17.50;62.20;;;;;;5070670;28;20492;-46
2023/02/16 00:29:52;;;;;;;11.23;8.37;;;17.50;62.20;;;;;;5066527;28;20561;-45
2023/02/16 00:32:20;;;;;;;10.20;8.40;;;17.50;62.10;;;;;;5050221;28;20213;-45
2023/02/16 00:34:52;;;;;;;10.47;8.40;;;17.50;62.10;;;;;;5069769;28;20194;-45
2023/02/16 00:37:24;;;;;;;10.40;8.53;;;17.50;62.10;;;;;;5069557;28;20197;-45
2023/02/16 00:39:55;;;;;;;9.27;7.97;;;17.50;62.20;;;;;;5068355;28;20238;-45
2023/02/16 00:42:30;;;;;;;10.70;8.70;;;17.50;62.10;;;;;;5068906;28;20186;-45
2023/02/16 00:45:01;;;;;;;11.73;9.37;;;17.40;62.10;;;;;;5070061;28;20709;-45
2023/02/16 00:47:41;;;;;;;10.53;8.40;;;17.40;62.00;;;;;;5049319;28;20279;-45
2023/02/16 00:50:26;;;;;;;10.47;8.37;;;17.50;62.10;;;;;;5067149;28;20198;-45
2023/02/16 00:52:53;;;;;;;10.20;8.27;;;17.40;62.10;;;;;;5043902;28;20643;-45
2023/02/16 00:55:30;;;;;;;12.87;8.67;;;17.40;62.00;;;;;;5046874;28;20202;-45
2023/02/16 00:58:29;;;;;;;9.77;8.73;;;17.40;62.00;;;;;;5053768;28;20594;-45
2023/02/16 01:01:15;;;;;;;10.73;8.83;;;17.40;62.10;;;;;;5069372;28;20233;-45
2023/02/16 01:03:54;;;;;;;10.13;7.93;;;17.40;62.60;;;;;;5051703;28;20210;-45
2023/02/16 01:12:20;;;;;;;10.63;8.40;;;17.40;62.00;;;;;;5051124;28;20228;-45
2023/02/16 01:14:53;;;;;;;12.40;8.33;;;17.40;62.00;;;;;;5068482;28;20870;-45
2023/02/16 01:17:22;;;;;;;9.77;7.73;;;17.40;62.00;;;;;;5066634;28;20559;-45
2023/02/16 01:19:51;;;;;;;11.40;8.37;;;17.40;62.00;;;;;;5067559;28;20222;-45
2023/02/16 01:22:21;;;;;;;10.47;8.37;;;17.40;62.00;;;;;;5068454;28;20198;-45
2023/02/16 01:24:53;;;;;;;11.13;9.10;;;17.40;62.00;;;;;;5052024;28;20632;-45
2023/02/16 01:27:33;;;;;;;11.07;8.77;;;17.30;61.80;;;;;;5063629;28;20336;-44
2023/02/16 01:30:10;;;;;;;10.13;8.20;;;17.30;61.90;;;;;;5063626;28;20209;-45
2023/02/16 01:32:50;;;;;;;9.53;8.40;;;17.30;61.80;;;;;;5067008;28;20660;-45
2023/02/16 01:35:32;;;;;;;8.93;7.57;;;17.30;61.80;;;;;;5069684;28;20208;-45
2023/02/16 01:38:02;;;;;;;9.63;7.90;;;17.30;61.80;;;;;;5069424;28;20236;-45
2023/02/16 01:40:41;;;;;;;9.03;8.13;;;17.30;61.60;;;;;;5067879;28;20248;-45
2023/02/16 01:43:27;;;;;;;9.43;7.77;;;17.30;61.70;;;;;;5068406;28;20247;-45
2023/02/16 01:46:02;;;;;;;9.40;8.10;;;17.30;61.60;;;;;;5067760;28;20829;-45
2023/02/16 01:48:33;;;;;;;8.60;7.63;;;17.30;61.60;;;;;;5068660;28;20193;-45
2023/02/16 01:51:20;;;;;;;11.70;8.50;;;17.20;61.60;;;;;;5068757;28;20212;-45
2023/02/16 01:54:01;;;;;;;9.60;7.83;;;17.30;61.40;;;;;;5036889;28;20587;-45
2023/02/16 01:56:38;;;;;;;9.77;8.33;;;17.30;61.50;;;;;;5069310;28;20196;-45
2023/02/16 01:59:31;;;;;;;11.00;8.53;;;17.20;61.30;;;;;;5054317;28;20296;-45
2023/02/16 02:02:04;;;;;;;9.07;7.97;;;17.30;61.40;;;;;;5059783;28;20194;-45
2023/02/16 02:08:02;;;;;;;10.27;8.30;;;17.20;61.20;;;;;;5065947;28;20193;-45
2023/02/16 02:10:54;;;;;;;10.67;8.93;;;17.20;61.10;;;;;;5068516;28;20200;-45
2023/02/16 02:13:54;;;;;;;10.47;9.03;;;17.20;61.60;;;;;;5063209;28;20705;-45
2023/02/16 02:17:21;;;;;;;10.23;9.03;;;17.20;60.90;;;;;;5034885;28;20222;-45
2023/02/16 02:20:20;;;;;;;12.50;9.53;;;17.20;60.90;;;;;;5002881;28;20231;-45
2023/02/16 02:23:33;;;;;;;9.53;8.17;;;17.20;60.90;;;;;;5068785;28;20288;-45
2023/02/16 02:26:34;;;;;;;10.37;8.80;;;17.20;60.90;;;;;;5069860;28;20215;-45
2023/02/16 02:29:43;;;;;;;12.20;8.83;;;17.10;61.40;;;;;;5060771;28;20266;-45
2023/02/16 02:32:50;;;;;;;10.03;8.63;;;17.20;60.90;;;;;;5061142;28;20208;-45
2023/02/16 02:35:33;;;;;;;10.40;8.43;;;17.20;60.80;;;;;;5066123;28;20198;-45
2023/02/16 02:38:31;;;;;;;10.80;8.50;;;17.10;60.80;;;;;;5058764;28;20353;-45
2023/02/16 02:41:19;;;;;;;9.27;7.90;;;17.10;60.80;;;;;;5069813;28;20330;-45
2023/02/16 02:44:05;;;;;;;11.23;9.23;;;17.10;60.90;;;;;;5071777;28;20197;-45
2023/02/16 02:46:37;;;;;;;8.70;7.80;;;17.10;60.90;;;;;;5043934;28;20271;-45
2023/02/16 02:49:07;;;;;;;8.77;7.87;;;17.10;60.80;;;;;;5070975;28;21326;-45
2023/02/16 02:51:39;;;;;;;9.33;8.07;;;17.10;60.80;;;;;;5067286;28;20592;-45
2023/02/16 03:00:45;;;;;;;8.70;7.80;;;17.10;60.90;;;;;;5071023;28;20210;-45
2023/02/16 03:03:34;;;;;;;10.43;8.03;;;17.10;61.00;;;;;;5060571;28;20191;-45
2023/02/16 03:06:34;;;;;;;9.33;7.87;;;17.10;61.00;;;;;;5065785;28;20210;-45
2023/02/16 03:09:10;;;;;;;8.53;7.43;;;17.10;60.90;;;;;;5070134;28;20205;-45
2023/02/16 03:14:36;;;;;;;9.50;8.13;;;17.10;60.80;;;;;;5041408;28;20256;-45
2023/02/16 03:31:37;;;;;;;9.47;8.03;;;17.00;60.70;;;;;;5050337;28;20266;-45
2023/02/16 03:34:07;;;;;;;9.37;8.17;;;17.00;60.50;;;;;;5041380;28;20233;-45
2023/02/16 03:36:39;;;;;;;9.90;8.17;;;17.00;60.50;;;;;;5043228;28;20190;-45
2023/02/16 03:39:09;;;;;;;9.67;8.10;;;17.00;60.60;;;;;;5067100;28;20741;-45
2023/02/16 03:41:45;;;;;;;9.07;8.03;;;17.00;60.50;;;;;;5045279;28;20229;-45
2023/02/16 03:44:16;;;;;;;10.03;8.53;;;17.00;60.70;;;;;;5047920;28;20201;-45
2023/02/16 03:46:50;;;;;;;10.53;8.53;;;17.00;60.60;;;;;;5035769;28;20198;-45
2023/02/16 03:49:20;;;;;;;10.30;8.10;;;17.00;60.60;;;;;;5063657;28;20198;-45
2023/02/16 03:51:51;;;;;;;9.73;8.00;;;17.00;60.60;;;;;;5041630;28;20209;-45
2023/02/16 03:54:21;;;;;;;10.70;8.77;;;17.00;61.20;;;;;;5073811;28;20222;-45
2023/02/16 03:56:51;;;;;;;11.50;8.37;;;17.00;60.50;;;;;;5068884;28;20202;-45
2023/02/16 03:59:21;;;;;;;9.33;8.07;;;17.00;60.30;;;;;;5070479;28;20197;-45
2023/02/16 04:01:49;;;;;;;9.33;8.13;;;17.00;60.30;;;;;;5063803;28;20206;-45
2023/02/16 04:04:28;;;;;;;9.63;8.60;;;17.00;60.40;;;;;;5048077;28;20222;-45
2023/02/16 04:06:58;;;;;;;9.43;7.70;;;16.90;60.30;;;;;;5078607;28;20201;-45
2023/02/16 04:09:30;;;;;;;9.53;8.13;;;16.90;60.40;;;;;;5065659;28;20221;-45
2023/02/16 04:14:53;;;;;;;9.97;8.97;;;16.90;60.30;;;;;;5067355;28;20193;-45
2023/02/16 04:17:21;;;;;;;9.63;8.50;;;16.90;60.20;;;;;;5061533;28;20266;-45
2023/02/16 04:19:52;;;;;;;9.93;8.93;;;16.90;60.10;;;;;;5046912;28;20206;-45
2023/02/16 04:22:20;;;;;;;9.47;8.47;;;16.90;60.30;;;;;;5046692;28;20230;-45
2023/02/16 04:24:50;;;;;;;9.40;7.87;;;16.90;60.20;;;;;;5047074;28;20602;-45
2023/02/16 04:27:23;;;;;;;10.37;8.90;;;16.90;60.00;;;;;;5040362;28;20722;-45
2023/02/16 04:29:52;;;;;;;10.50;8.93;;;16.90;60.00;;;;;;5049080;28;20237;-45
2023/02/16 04:32:22;;;;;;;10.13;8.37;;;16.90;60.10;;;;;;5042995;28;20495;-45
2023/02/16 04:34:51;;;;;;;10.60;8.53;;;16.90;60.20;;;;;;5044593;28;20206;-45
2023/02/16 04:37:21;;;;;;;10.93;9.00;;;16.90;60.00;;;;;;5050880;28;20510;-45
2023/02/16 04:39:50;;;;;;;10.50;8.40;;;16.90;60.20;;;;;;5037335;28;20312;-45
2023/02/16 04:42:22;;;;;;;9.40;8.40;;;16.90;60.20;;;;;;5049859;28;20304;-45
2023/02/16 04:44:50;;;;;;;9.90;7.97;;;16.90;60.20;;;;;;5054208;28;20194;-45
2023/02/16 04:47:24;;;;;;;9.33;8.00;;;16.90;60.10;;;;;;5050700;28;20198;-45
2023/02/16 04:49:52;;;;;;;10.50;8.80;;;16.90;60.00;;;;;;5050454;28;20182;-45
2023/02/16 04:52:19;;;;;;;10.70;8.33;;;16.90;59.90;;;;;;5030595;28;20206;-45
2023/02/16 04:54:51;;;;;;;9.40;8.40;;;16.80;59.90;;;;;;5050440;28;20199;-45
2023/02/16 04:57:23;;;;;;;9.83;8.80;;;16.90;60.00;;;;;;5050461;28;20205;-45
2023/02/16 04:59:56;;;;;;;11.03;9.67;;;16.90;59.90;;;;;;5053133;28;20746;-45
2023/02/16 05:02:26;;;;;;;10.43;8.73;;;16.90;59.90;;;;;;5049352;28;20218;-45
2023/02/16 05:04:56;;;;;;;10.63;9.40;;;16.90;59.90;;;;;;5044660;28;20214;-45
2023/02/16 05:07:26;;;;;;;10.10;8.60;;;16.80;59.90;;;;;;5049160;28;20202;-45
2023/02/16 05:09:54;;;;;;;11.60;9.67;;;16.80;59.90;;;;;;5049899;28;20190;-45
2023/02/16 05:15:19;;;;;;;10.10;8.67;;;16.80;59.90;;;;;;5048039;28;20531;-45
2023/02/16 05:17:48;;;;;;;11.40;9.07;;;16.80;59.80;;;;;;5045226;28;20238;-45
2023/02/16 05:23:21;;;;;;;11.17;9.37;;;16.80;59.70;;;;;;5049255;28;20612;-45
2023/02/16 05:25:50;;;;;;;9.63;8.10;;;16.80;59.80;;;;;;5030171;28;20207;-45
2023/02/16 05:28:22;;;;;;;11.77;8.50;;;16.80;59.70;;;;;;5048853;28;20210;-45
2023/02/16 05:30:53;;;;;;;11.00;8.90;;;16.80;59.90;;;;;;5042437;28;20709;-45
2023/02/16 05:33:26;;;;;;;10.57;8.63;;;16.80;59.80;;;;;;5034369;28;20229;-45
2023/02/16 05:36:01;;;;;;;10.43;8.47;;;16.80;59.80;;;;;;5044541;28;20239;-45
2023/02/16 05:38:33;;;;;;;11.30;9.10;;;16.80;59.90;;;;;;5031661;28;20210;-45
2023/02/16 05:41:04;;;;;;;9.87;8.03;;;16.80;59.90;;;;;;5043211;28;20237;-45
2023/02/16 05:43:33;;;;;;;9.53;7.97;;;16.80;59.80;;;;;;5048636;28;20186;-45
2023/02/16 05:46:12;;;;;;;8.83;7.90;;;16.80;59.80;;;;;;5048569;28;20710;-46
2023/02/16 05:48:47;;;;;;;9.50;8.23;;;16.80;59.90;;;;;;5049934;28;20202;-45
2023/02/16 05:51:17;;;;;;;9.33;8.00;;;16.80;59.80;;;;;;5048347;28;20217;-45
2023/02/16 05:53:48;;;;;;;9.37;8.47;;;16.70;59.80;;;;;;5044179;28;20214;-45
2023/02/16 05:56:19;;;;;;;9.67;8.13;;;16.70;59.60;;;;;;5049456;28;20246;-45
2023/02/16 05:58:49;;;;;;;10.33;8.37;;;16.80;59.70;;;;;;5036392;28;20198;-45
2023/02/16 06:01:20;;;;;;;10.33;8.80;;;16.70;59.50;;;;;;5031654;28;20609;-45
2023/02/16 06:03:51;;;;;;;10.00;8.63;;;16.80;59.30;;;;;;5029860;28;20687;-45
2023/02/16 06:06:21;;;;;;;9.47;8.47;;;16.80;59.40;;;;;;5048861;28;20209;-45
2023/02/16 06:08:51;;;;;;;11.80;9.07;;;16.80;59.20;;;;;;5049146;28;20648;-45
2023/02/16 06:11:36;;;;;;;9.77;8.37;;;16.80;59.10;;;;;;5057466;28;20213;-45
2023/02/16 06:14:16;;;;;;;10.07;8.63;;;16.70;59.30;;;;;;5034615;28;20198;-45
2023/02/16 06:16:47;;;;;;;11.37;8.67;;;16.70;59.20;;;;;;5030777;28;20659;-45
2023/02/16 06:19:17;;;;;;;11.27;9.00;;;16.70;59.20;;;;;;5065432;28;20241;-45
2023/02/16 06:21:47;;;;;;;9.87;8.77;;;16.70;59.30;;;;;;5047234;28;20229;-45
2023/02/16 06:24:17;;;;;;;11.77;9.63;;;16.70;59.30;;;;;;5052267;28;20217;-45
2023/02/16 06:26:49;;;;;;;10.10;8.93;;;16.70;59.20;;;;;;5049734;28;20276;-45
2023/02/16 06:29:22;;;;;;;10.53;9.30;;;16.70;59.10;;;;;;5055441;28;20206;-45
2023/02/16 06:31:52;;;;;;;11.03;9.40;;;16.70;59.10;;;;;;5066101;28;20198;-45
2023/02/16 06:34:23;;;;;;;176.50;36.77;;;16.70;59.20;;;;;;5056711;28;20197;-45
2023/02/16 06:36:54;;;;;;;159.27;43.77;;;16.70;59.40;;;;;;5071573;28;20206;-48
2023/02/16 06:39:23;;;;;;;163.77;40.73;;;16.80;61.00;;;;;;5067680;28;20198;-48
2023/02/16 06:41:55;;;;;;;151.40;39.37;;;16.70;61.30;;;;;;5083689;28;20218;-49
2023/02/16 06:44:27;;;;;;;152.40;38.37;;;16.70;61.10;;;;;;5066850;28;20190;-48
2023/02/16 06:47:03;;;;;;;140.07;36.40;;;16.70;60.80;;;;;;5078783;28;20284;-48
2023/02/16 06:49:32;;;;;;;138.33;36.13;;;16.70;60.70;;;;;;5064696;28;20194;-48
2023/02/16 06:52:05;;;;;;;137.30;32.83;;;16.70;60.40;;;;;;5070059;28;20228;-48
2023/02/16 06:54:36;;;;;;;96.53;30.53;;;16.80;60.40;;;;;;5058030;28;20226;-48
2023/02/16 06:57:08;;;;;;;105.53;31.73;;;16.70;60.20;;;;;;5069011;28;20194;-48
2023/02/16 06:59:40;;;;;;;91.80;29.73;;;16.70;60.10;;;;;;5065409;28;20194;-48
2023/02/16 07:02:10;;;;;;;89.77;29.03;;;16.70;60.00;;;;;;5068627;28;20671;-48
2023/02/16 07:04:46;;;;;;;71.93;25.57;;;16.70;59.90;;;;;;5049757;28;20556;-48
2023/02/16 07:07:16;;;;;;;74.70;25.97;;;16.70;59.60;;;;;;5068366;28;20645;-48
2023/02/16 07:09:47;;;;;;;74.93;25.73;;;16.70;59.50;;;;;;5068294;28;20397;-48
2023/02/16 07:12:17;;;;;;;69.00;25.27;;;16.70;59.40;;;;;;5069586;28;20221;-45
2023/02/16 07:14:48;;;;;;;62.17;23.57;;;16.70;59.50;;;;;;5062708;28;20209;-44
2023/02/16 07:17:19;;;;;;;60.73;22.17;;;16.60;59.20;;;;;;5050631;28;20234;-48
2023/02/16 07:19:49;;;;;;;54.50;20.73;;;16.70;59.30;;;;;;5042612;28;20198;-48
2023/02/16 07:22:20;;;;;;;49.13;20.07;;;16.70;59.40;;;;;;5047347;28;20222;-48
2023/02/16 07:24:54;;;;;;;53.30;19.03;;;16.70;59.40;;;;;;5048034;28;20600;-48
2023/02/16 07:27:25;;;;;;;38.90;18.00;;;16.70;59.30;;;;;;5036575;28;20225;-48
2023/02/16 07:29:55;;;;;;;44.17;19.30;;;16.70;59.00;;;;;;5044955;28;20272;-48
2023/02/16 07:32:32;;;;;;;48.67;19.27;;;16.70;58.90;;;;;;5048832;28;20210;-44
2023/02/16 07:35:01;;;;;;;37.07;17.80;;;16.70;58.90;;;;;;5025658;28;20198;-45
2023/02/16 07:37:31;;;;;;;39.17;17.73;;;16.70;58.80;;;;;;5046954;28;20281;-44
2023/02/16 07:40:04;;;;;;;37.33;16.20;;;16.70;58.60;;;;;;5050929;28;20291;-44
2023/02/16 07:42:35;;;;;;;33.13;15.97;;;16.70;58.60;;;;;;5026781;28;20257;-48
2023/02/16 07:45:06;;;;;;;38.80;16.80;;;16.70;58.70;;;;;;5041613;28;20225;-47
2023/02/16 07:47:37;;;;;;;30.87;16.47;;;16.70;58.80;;;;;;5045408;28;20220;-47
2023/02/16 07:50:09;;;;;;;29.07;15.60;;;16.70;58.60;;;;;;5046876;28;20564;-44
2023/02/16 07:52:36;;;;;;;33.07;15.97;;;16.70;58.40;;;;;;5025930;28;20203;-44
2023/02/16 07:55:10;;;;;;;26.33;14.63;;;16.60;58.30;;;;;;5034419;28;20218;-44
2023/02/16 07:57:40;;;;;;;27.43;14.33;;;16.70;58.40;;;;;;5044665;28;20206;-44
2023/02/16 08:00:10;;;;;;;26.90;15.67;;;16.70;58.30;;;;;;5035062;28;20241;-47
2023/02/16 08:02:55;;;;;;;27.80;15.20;;;16.70;58.30;;;;;;5050773;28;20202;-48
2023/02/16 08:05:25;;;;;;;25.73;13.53;;;16.70;58.00;;;;;;5049491;28;20199;-47
2023/02/16 08:07:56;;;;;;;27.73;14.37;;;16.70;58.20;;;;;;5050796;28;20306;-47
2023/02/16 08:10:26;;;;;;;27.23;13.67;;;16.70;58.30;;;;;;5051493;28;20194;-44
2023/02/16 08:12:57;;;;;;;24.20;14.57;;;16.70;58.00;;;;;;5051383;28;20198;-44
2023/02/16 08:15:28;;;;;;;22.77;13.03;;;16.70;58.10;;;;;;5050388;28;20201;-47
2023/02/16 08:18:11;;;;;;;21.23;12.70;;;16.60;58.10;;;;;;5042912;28;20345;-47
2023/02/16 08:20:43;;;;;;;17.43;11.53;;;16.70;58.20;;;;;;5046440;28;20199;-47
2023/02/16 08:23:25;;;;;;;20.87;12.70;;;16.60;58.20;;;;;;5048354;28;20297;-47
2023/02/16 08:25:57;;;;;;;20.03;11.60;;;16.60;58.30;;;;;;5051224;28;20252;-44
2023/02/16 08:28:29;;;;;;;21.80;11.83;;;16.60;58.20;;;;;;5048798;28;20206;-44
2023/02/16 08:30:57;;;;;;;17.80;11.40;;;16.60;58.20;;;;;;5053930;28;20804;-44
2023/02/16 08:33:28;;;;;;;16.63;11.43;;;16.60;58.10;;;;;;5052137;28;20198;-44
2023/02/16 08:36:02;;;;;;;18.93;11.50;;;16.70;58.10;;;;;;5051456;28;20417;-47
2023/02/16 08:38:49;;;;;;;17.10;10.73;;;16.70;58.20;;;;;;5054671;28;20222;-47
2023/02/16 08:41:21;;;;;;;17.90;10.90;;;16.70;58.20;;;;;;5048818;28;20843;-47
2023/02/16 08:43:55;;;;;;;15.77;10.40;;;16.60;58.20;;;;;;5031823;28;20199;-47
2023/02/16 08:46:39;;;;;;;18.47;11.07;;;16.60;58.10;;;;;;5038550;28;20283;-47
2023/02/16 08:49:11;;;;;;;17.87;11.43;;;16.70;58.20;;;;;;5032925;28;20195;-47
2023/02/16 08:51:46;;;;;;;18.20;10.70;;;16.60;58.20;;;;;;5041556;28;20202;-49
2023/02/16 08:54:29;;;;;;;13.63;10.07;;;16.60;58.20;;;;;;5045962;28;20679;-47
2023/02/16 08:57:01;;;;;;;16.83;10.90;;;16.70;58.10;;;;;;5028757;28;20198;-44
2023/02/16 08:59:33;;;;;;;15.83;10.30;;;16.60;58.00;;;;;;5028493;28;20218;-46
2023/02/16 09:02:05;;;;;;;15.87;10.60;;;16.60;57.70;;;;;;5049234;28;20237;-49
2023/02/16 09:04:37;;;;;;;14.57;10.00;;;16.60;58.00;;;;;;5046489;28;20222;-49
2023/02/16 09:07:10;;;;;;;15.37;10.27;;;16.70;58.00;;;;;;5052989;28;20247;-46
2023/02/16 09:09:39;;;;;;;14.37;10.37;;;16.70;58.00;;;;;;5047799;28;20682;-44
2023/02/16 09:12:08;;;;;;;13.03;9.63;;;16.70;57.90;;;;;;5047273;28;20695;-44
2023/02/16 09:14:36;;;;;;;13.97;10.20;;;16.60;57.80;;;;;;5049637;28;20202;-44
2023/02/16 09:17:11;;;;;;;14.23;9.70;;;16.60;57.90;;;;;;5045149;28;20221;-46
2023/02/16 09:19:42;;;;;;;11.63;9.17;;;16.70;57.80;;;;;;5047232;28;20201;-45
2023/02/16 09:22:15;;;;;;;11.17;8.93;;;16.70;57.80;;;;;;5053305;28;20206;-46
2023/02/16 09:24:46;;;;;;;14.97;9.60;;;16.70;57.80;;;;;;5049489;28;20597;-46
2023/02/16 09:27:19;;;;;;;12.27;9.17;;;16.70;57.90;;;;;;5049851;28;20187;-46
2023/02/16 09:29:50;;;;;;;11.30;9.07;;;16.60;57.80;;;;;;5043975;28;20210;-46
2023/02/16 09:32:23;;;;;;;12.20;9.33;;;16.70;57.90;;;;;;5048722;28;20226;-48
2023/02/16 09:34:56;;;;;;;12.30;8.73;;;16.70;57.80;;;;;;5049986;28;20570;-49
2023/02/16 09:37:30;;;;;;;11.60;8.77;;;16.60;57.90;;;;;;5049184;28;20230;-48
2023/02/16 09:40:00;;;;;;;11.07;8.77;;;16.70;57.80;;;;;;5030109;28;20536;-49
2023/02/16 09:43:07;;;;;;;11.13;8.60;;;16.70;57.80;;;;;;5048263;28;20221;-48
2023/02/16 09:45:50;;;;;;;12.90;9.10;;;16.70;57.80;;;;;;5046526;28;20194;-45
2023/02/16 09:48:48;;;;;;;10.57;8.83;;;16.70;57.90;;;;;;5034006;28;20190;-45
2023/02/16 09:51:40;;;;;;;11.83;9.33;;;16.70;57.80;;;;;;5054184;28;20209;-45
2023/02/16 09:54:34;;;;;;;11.20;8.70;;;16.70;57.80;;;;;;5041349;28;20186;-45
2023/02/16 09:57:12;;;;;;;11.93;9.13;;;16.70;57.80;;;;;;5043843;28;20202;-48
2023/02/16 09:59:58;;;;;;;9.70;8.70;;;16.60;57.80;;;;;;5029568;28;20186;-48
2023/02/16 10:02:53;;;;;;;10.93;8.60;;;16.60;57.80;;;;;;5048595;28;20222;-45
2023/02/16 10:05:45;;;;;;;10.90;9.20;;;16.70;57.80;;;;;;5046889;28;20210;-48
2023/02/16 10:08:56;;;;;;;10.57;8.67;;;16.70;57.80;;;;;;5060468;28;20611;-48
2023/02/16 10:11:53;;;;;;;13.13;9.53;;;16.70;57.90;;;;;;5034702;28;20528;-48
2023/02/16 10:14:52;;;;;;;10.57;9.00;;;16.70;57.80;;;;;;5040987;28;20197;-48
2023/02/16 10:17:51;;;;;;;10.13;8.70;;;16.70;57.80;;;;;;5038285;28;20237;-48
2023/02/16 10:20:38;;;;;;;10.50;8.70;;;16.70;57.70;;;;;;5061117;28;20659;-45
2023/02/16 10:23:41;;;;;;;10.77;9.67;;;16.70;57.70;;;;;;5050342;28;20224;-44
2023/02/16 10:26:30;;;;;;;11.57;9.70;;;16.70;57.50;;;;;;5068264;28;20217;-49
2023/02/16 10:29:09;;;;;;;11.83;10.10;;;16.70;57.50;;;;;;5066086;28;20198;-47
2023/02/16 10:32:03;;;;;;;10.40;9.07;;;16.70;57.60;;;;;;5065425;28;20577;-48
2023/02/16 10:34:50;;;;;;;10.77;9.00;;;16.70;57.60;;;;;;5053720;28;20213;-48
2023/02/16 10:37:48;;;;;;;13.50;10.03;;;16.70;57.50;;;;;;5051318;28;20185;-45
2023/02/16 10:40:44;;;;;;;10.53;8.77;;;16.70;57.60;;;;;;5061322;28;20216;-44
2023/02/16 10:43:45;;;;;;;10.33;9.27;;;16.70;57.60;;;;;;5053082;28;20253;-44
2023/02/16 10:46:24;;;;;;;12.00;8.80;;;16.70;57.70;;;;;;5057598;28;20810;-48
2023/02/16 10:49:02;;;;;;;10.33;9.23;;;16.70;57.70;;;;;;5063348;28;20254;-47
2023/02/16 10:51:48;;;;;;;10.90;9.17;;;16.70;57.80;;;;;;5061378;28;20189;-47
2023/02/16 10:54:30;;;;;;;11.03;9.33;;;16.70;57.70;;;;;;5063619;28;20205;-47
2023/02/16 10:57:20;;;;;;;10.67;8.83;;;16.70;57.70;;;;;;5067727;28;20202;-48
2023/02/16 10:59:55;;;;;;;11.57;9.43;;;16.70;57.70;;;;;;5057401;28;20220;-47
2023/02/16 11:02:39;;;;;;;9.40;8.33;;;16.70;57.70;;;;;;5051705;28;20206;-47
2023/02/16 11:05:33;;;;;;;12.03;9.27;;;16.70;57.60;;;;;;5065156;28;20205;-47
2023/02/16 11:08:06;;;;;;;11.03;9.83;;;16.70;57.70;;;;;;5057619;28;20193;-50
2023/02/16 11:10:58;;;;;;;9.50;8.50;;;16.70;57.60;;;;;;5063933;28;20184;-47
2023/02/16 11:13:36;;;;;;;9.17;8.27;;;16.70;57.50;;;;;;5061146;28;20213;-47
2023/02/16 11:16:20;;;;;;;11.53;9.80;;;16.80;57.60;;;;;;5065558;28;20225;-46
2023/02/16 11:19:19;;;;;;;12.30;9.93;;;16.70;57.50;;;;;;5063015;28;20592;-44
2023/02/16 11:21:50;;;;;;;11.07;9.17;;;16.80;57.60;;;;;;5051144;28;20233;-47
2023/02/16 11:24:28;;;;;;;11.67;9.33;;;16.80;57.50;;;;;;5061158;28;20193;-47
2023/02/16 11:27:22;;;;;;;10.23;9.13;;;16.80;57.50;;;;;;5061706;28;20682;-47
2023/02/16 11:30:12;;;;;;;10.40;8.77;;;16.70;57.50;;;;;;5058595;28;20264;-47
2023/02/16 11:32:42;;;;;;;11.70;9.03;;;16.80;57.50;;;;;;5060851;28;20186;-47
2023/02/16 11:35:15;;;;;;;10.40;8.73;;;16.80;57.60;;;;;;5065068;28;20207;-47
2023/02/16 11:37:42;;;;;;;9.80;8.80;;;16.80;57.50;;;;;;5070379;28;20201;-48
2023/02/16 11:40:50;;;;;;;12.70;8.83;;;16.80;57.50;;;;;;5054476;28;20232;-45
2023/02/16 11:43:20;;;;;;;9.80;8.80;;;16.80;57.50;;;;;;5028859;28;20244;-45
2023/02/16 11:46:03;;;;;;;9.37;8.33;;;16.70;57.50;;;;;;5056020;28;20198;-44
2023/02/16 11:48:33;;;;;;;10.00;8.83;;;16.70;57.70;;;;;;5052555;28;20232;-44
2023/02/16 11:51:10;;;;;;;9.73;7.93;;;16.70;57.50;;;;;;5056728;28;20213;-48
2023/02/16 11:54:04;;;;;;;11.40;9.00;;;16.80;57.50;;;;;;5064283;28;20304;-47
2023/02/16 11:56:39;;;;;;;10.33;8.80;;;16.80;57.40;;;;;;5064355;28;20645;-44
2023/02/16 11:59:21;;;;;;;11.10;9.50;;;16.80;57.40;;;;;;5065318;28;20193;-44
2023/02/16 12:02:06;;;;;;;9.67;8.67;;;16.80;57.40;;;;;;5063485;28;21097;-47
2023/02/16 12:05:03;;;;;;;12.93;10.23;;;16.80;57.50;;;;;;5061312;28;20631;-47
2023/02/16 12:08:21;;;;;;;11.77;10.57;;;16.80;57.30;;;;;;5061506;28;20197;-47
2023/02/16 12:11:36;;;;;;;11.53;10.33;;;16.80;57.30;;;;;;5064749;28;20198;-47
2023/02/16 12:14:45;;;;;;;12.80;10.77;;;16.80;57.20;;;;;;5064041;28;20309;-47
2023/02/16 12:17:53;;;;;;;12.53;10.43;;;16.80;57.20;;;;;;5046774;28;20213;-44
2023/02/16 12:20:53;;;;;;;12.07;10.00;;;16.80;57.30;;;;;;5071778;28;20215;-48
2023/02/16 12:23:55;;;;;;;11.20;10.00;;;16.80;57.30;;;;;;5068372;28;20699;-49
2023/02/16 12:26:50;;;;;;;11.37;9.63;;;16.80;57.40;;;;;;5081030;28;20193;-45
2023/02/16 12:29:48;;;;;;;14.13;10.10;;;16.80;57.70;;;;;;5062072;28;20206;-45
2023/02/16 12:33:22;;;;;;;13.23;10.10;;;16.80;57.70;;;;;;5070326;28;20204;-49
2023/02/16 12:36:22;;;;;;;13.93;9.67;;;16.80;57.90;;;;;;5046458;28;20662;-44
2023/02/16 12:39:13;;;;;;;10.20;9.00;;;16.80;57.80;;;;;;5067539;28;20592;-44
2023/02/16 12:42:17;;;;;;;11.43;9.13;;;16.80;57.70;;;;;;5066550;28;20205;-48
2023/02/16 12:45:05;;;;;;;12.87;9.10;;;16.80;57.70;;;;;;5068999;28;20196;-48
2023/02/16 12:47:43;;;;;;;11.30;9.30;;;16.80;57.70;;;;;;5072085;28;20186;-44
2023/02/16 12:50:22;;;;;;;12.07;9.67;;;16.80;57.60;;;;;;5056404;28;20201;-44
2023/02/16 12:53:32;;;;;;;11.83;9.97;;;16.80;57.50;;;;;;5068167;28;20302;-44
2023/02/16 12:56:11;;;;;;;13.97;10.03;;;16.80;57.50;;;;;;5060922;28;20213;-44
2023/02/16 12:58:52;;;;;;;11.83;9.53;;;16.80;57.30;;;;;;5057534;28;20224;-44
2023/02/16 13:01:33;;;;;;;12.00;9.57;;;16.90;57.50;;;;;;5067725;28;20228;-49
2023/02/16 13:04:25;;;;;;;12.80;10.77;;;16.80;57.40;;;;;;5048886;28;20230;-47
2023/02/16 13:07:21;;;;;;;12.60;10.60;;;16.80;57.30;;;;;;5071281;28;20885;-49
2023/02/16 13:10:44;;;;;;;13.63;10.00;;;16.80;57.30;;;;;;5069633;28;20213;-47
2023/02/16 13:13:20;;;;;;;12.83;10.77;;;16.90;57.50;;;;;;5004238;28;20657;-44
2023/02/16 13:16:37;;;;;;;11.63;10.33;;;16.80;57.40;;;;;;5073677;28;20224;-48
2023/02/16 13:19:12;;;;;;;12.37;10.13;;;16.90;57.60;;;;;;4977967;28;20407;-49
2023/02/16 13:22:34;;;;;;;11.77;10.07;;;16.80;57.60;;;;;;5028382;28;20186;-50
2023/02/16 13:25:40;;;;;;;14.47;10.20;;;16.90;57.60;;;;;;5002805;28;20227;-48
2023/02/16 13:28:43;;;;;;;13.03;10.23;;;16.80;57.70;;;;;;4984559;28;20227;-45
2023/02/16 13:31:52;;;;;;;12.50;10.77;;;16.90;57.60;;;;;;5004649;28;20203;-44
2023/02/16 13:34:57;;;;;;;11.93;10.27;;;16.90;57.70;;;;;;5004524;28;20215;-46
2023/02/16 13:37:58;;;;;;;12.23;10.13;;;16.90;57.70;;;;;;4998564;28;20398;-44
2023/02/16 13:41:05;;;;;;;11.70;10.20;;;16.90;57.70;;;;;;5002698;28;20563;-44
2023/02/16 13:43:55;;;;;;;15.40;10.97;;;16.90;57.70;;;;;;5002127;28;20215;-44
2023/02/16 13:46:29;;;;;;;11.80;10.20;;;16.90;57.80;;;;;;5003330;28;20203;-47
2023/02/16 13:49:01;;;;;;;10.40;9.30;;;16.90;57.70;;;;;;5048208;28;20219;-50
2023/02/16 13:51:45;;;;;;;11.57;10.23;;;16.90;57.80;;;;;;5045134;28;20538;-44
2023/02/16 13:54:27;;;;;;;12.13;10.43;;;17.00;57.70;;;;;;5047973;28;20415;-45
2023/02/16 13:56:57;;;;;;;12.43;9.70;;;17.00;57.80;;;;;;5050905;28;20210;-46
2023/02/16 13:59:36;;;;;;;12.40;10.03;;;17.00;57.80;;;;;;5044709;28;20204;-46
2023/02/16 14:02:35;;;;;;;13.10;10.20;;;17.00;57.80;;;;;;5048533;28;20491;-50
2023/02/16 14:05:10;;;;;;;10.53;8.93;;;17.00;57.30;;;;;;5026291;28;20202;-47
2023/02/16 14:07:43;;;;;;;11.37;9.53;;;17.00;58.10;;;;;;5030778;28;20713;-49
2023/02/16 14:10:14;;;;;;;10.83;9.23;;;17.10;57.90;;;;;;5049259;28;20252;-49
2023/02/16 14:12:43;;;;;;;12.03;9.63;;;17.00;58.00;;;;;;5050272;28;20196;-49
2023/02/16 14:15:19;;;;;;;10.13;8.87;;;17.10;58.10;;;;;;5049468;28;20202;-49
2023/02/16 14:17:51;;;;;;;17.07;9.60;;;17.10;58.30;;;;;;5049743;28;20241;-47
2023/02/16 14:20:26;;;;;;;12.13;10.63;;;17.10;58.50;;;;;;5054987;28;20217;-45
2023/02/16 14:23:01;;;;;;;13.17;9.87;;;17.10;58.80;;;;;;5058244;28;20218;-45